Flight Track Log - Related Links

Times and Time Zones

All times are in EDT time to prevent confusion due to time zone crossing. See the UPS1134 flight status page for this flight to view local times or setup timezone preferences in your user account.

Time Position Orientation Groundspeed Altitude Reporting Facility
EDT Latitude Longitude Course Direction KTS MPH feet Rate Location/Type
Fri 04:27:58 AM 42.7381 -73.8044 219° Southwest 152 175 1,500  Level Boston Center
Fri 04:28:08 AM 42.7300 -73.8133 219° Southwest 166 191 2,100 2,318 Climbing Boston Center
Fri 04:28:42 AM 42.7289 -73.8567 268° West 193 222 3,200 2,617 Climbing Boston Center
Fri 04:29:42 AM 42.7322 -73.9342 273° West 221 254 6,200 3,176 Climbing Boston Center
Fri 04:30:41 AM 42.7439 -74.0294 279° West 239 275 9,500 2,571 Climbing Boston Center
Fri 04:31:41 AM 42.7608 -74.1253 284° West 263 303 11,300 1,300 Climbing Boston Center
Fri 04:32:41 AM 42.7833 -74.2425 285° West 318 366 12,100 397 Climbing Boston Center
Fri 04:33:42 AM 42.8067 -74.3653 285° West 336 387 12,100 -184 Level Boston Center
Fri 04:34:19 AM 42.8192 -74.4369 283° West 322 371 11,800 -194 Descending Boston Center
Fri 04:34:44 AM 42.8275 -74.4811 284° West 322 371 11,900  Climbing Boston Center
Fri 04:35:22 AM 42.8414 -74.5533 285° West 317 365 11,800  Descending Boston Center
Fri 04:35:42 AM 42.8492 -74.5992 283° West 320 368 11,900  Climbing Boston Center
Fri 04:36:23 AM 42.8633 -74.6725 285° West 320 368 11,800  Descending Boston Center
Fri 04:36:42 AM 42.8719 -74.7153 285° West 320 368 11,900  Climbing Boston Center
Fri 04:37:21 AM 42.8833 -74.7883 282° West 321 369 11,800  Descending Boston Center
Fri 04:37:45 AM 42.8875 -74.8125 283° West 321 369 11,900 -100 Climbing Boston Center
Fri 04:38:21 AM 42.9042 -74.9133 283° West 325 374 11,700 -316 Descending Boston Center
Fri 04:38:42 AM 42.9086 -74.9311 289° West 321 369 11,600 -787 Descending Boston Center
Fri 04:39:22 AM 42.9278 -75.0333 284° West 323 372 10,900 -689 Descending Boston Center
Fri 04:39:43 AM 42.9294 -75.0503 278° West 321 369 10,900 -476 Level Boston Center
Fri 04:40:25 AM 42.9453 -75.1372 284° West 267 307 10,400 -500 Descending Boston Center
Fri 04:40:43 AM 42.9486 -75.1544 285° West 290 334 10,400 -1,119 Level Boston Center
Fri 04:41:24 AM 42.9597 -75.2317 281° West 248 285 9,300 -1,200 Descending Boston Center
Fri 04:41:43 AM 42.9633 -75.2453 290° West 251 289 9,200 -1,279 Descending Boston Center
Fri 04:42:25 AM 42.9772 -75.3211 284° West 244 281 8,000 -1,300 Descending Boston Center
Fri 04:42:43 AM 42.9792 -75.3367 280° West 250 288 7,900 -1,200 Descending Boston Center
Fri 04:43:25 AM 42.9928 -75.4103 284° West 241 277 6,800 -1,300 Descending Boston Center
Fri 04:43:43 AM 42.9953 -75.4261 282° West 246 283 6,600 -1,400 Descending Boston Center
Fri 04:44:25 AM 42.9928 -75.5003 267° West 238 274 5,400 -1,300 Descending Boston Center
Fri 04:44:43 AM 42.9939 -75.5144 276° West 235 270 5,300 -393 Descending Boston Center
Fri 04:45:26 AM 42.9939 -75.5850 270° West 226 260 5,000 -190 Descending Boston Center
Fri 04:45:46 AM 42.9933 -75.6008 267° West 234 269 5,100  Climbing Boston Center
Fri 04:46:26 AM 42.9925 -75.6719 269° West 224 258 5,000  Descending Boston Center
Fri 04:46:44 AM 42.9922 -75.6853 268° West 230 265 5,100  Climbing Boston Center
Fri 04:47:27 AM 42.9925 -75.7622 270° West 224 258 5,000  Descending Boston Center
Fri 04:47:44 AM 42.9931 -75.7717 275° West 227 261 5,100  Climbing Boston Center
Fri 04:48:29 AM 42.9911 -75.8461 268° West 223 257 5,000  Descending Boston Center
Fri 04:48:44 AM 42.9944 -75.8569 293° West 227 261 5,100  Climbing Boston Center
Fri 04:49:29 AM 42.9939 -75.9314 269° West 224 258 5,000 -98 Descending Boston Center
Fri 04:49:45 AM 42.9939 -75.9406 270° West 225 259 5,000  Level Boston Center
Fri 04:50:28 AM 42.9947 -76.0161 271° West 220 253 5,000  Level Boston Center
Fri 04:50:46 AM 42.9961 -76.0244 283° West 224 258 5,000  Level Boston Center
Fri 04:51:29 AM 42.9953 -76.1008 269° West 222 255 5,000  Level Boston Center
Fri 04:51:48 AM 42.9958 -76.1086 276° West 224 258 5,000 -677 Level Boston Center
Fri 04:52:31 AM 42.9961 -76.1856 270° West 219 252 4,300 -842 Descending Boston Center
Fri 04:52:45 AM 42.9967 -76.1919 277° West 223 257 4,200 -1,220 Descending Boston Center
Fri 04:53:30 AM 43.0019 -76.2633 276° West 211 243 3,100 -1,161 Descending Boston Center
Fri 04:53:47 AM 43.0017 -76.2714 267° West 216 249 3,000 -689 Descending Boston Center
Fri 04:54:31 AM 43.0106 -76.3389 280° West 198 228 2,400 -610 Descending Boston Center
Fri 04:54:46 AM 43.0117 -76.3461 282° West 207 238 2,400  Level Boston Center
Fri 04:55:34 AM 43.0383 -76.3886 311° West 192 221 2,400  Level Boston Center
Fri 04:55:47 AM 43.0436 -76.3894 353° North 203 234 2,400  Level Boston Center
Fri 04:56:35 AM 43.0864 -76.3572 29° Northeast 203 234 2,400  Level Boston Center
Fri 04:56:47 AM 43.0917 -76.3522 35° Northeast 215 247 2,400  Level Boston Center
Fri 04:57:33 AM 43.1019 -76.2919 77° East 183 211 2,400  Level Boston Center
Fri 04:57:48 AM 43.1056 -76.2869 45° Northeast 195 224 2,400 -476 Level Boston Center
Fri 04:58:36 AM 43.1050 -76.2231 91° East 168 193 1,900 -517 Descending Boston Center
Fri 04:58:46 AM 43.1050 -76.2219 90° East 180 207 1,900 -689 Level Boston Center
Fri 04:59:37 AM 43.1056 -76.1706 89° East 129 148 1,200 -800 Descending Boston Center
Fri 04:59:46 AM 43.1072 -76.1697 20° North 157 181 1,100 -592 Descending Boston Center
Fri 05:00:48 AM 43.1089 -76.1253 87° East 133 153 500 -581 Descending Boston Center

Login

Don't have an account? Register now (free) for customized features, flight alerts, and more!